Time;durP1;ratioP1;P1;durP2;ratioP2;P2;SDS_P1;SDS_P2;PMS_P1;PMS_P2;Temp;Humidity;BMP_temperature;BMP_pressure;BME280_temperature;BME280_humidity;BME280_pressure;Samples;Min_cycle;Max_cycle;Signal;HPM_P1;HPM_P2
2024/01/22 00:01:57;;;;;;;4.17;2.40;;;;;-0.70;94525.00;;;;7398206;19;20492;-79
2024/01/22 00:04:38;;;;;;;4.17;2.40;;;;;-0.60;94536.00;;;;7396855;19;20175;-79
2024/01/22 00:07:12;;;;;;;2.87;1.90;;;;;-0.90;94531.00;;;;7399397;19;20579;-78
2024/01/22 00:09:47;;;;;;;3.23;2.20;;;;;-1.00;94517.00;;;;7397694;19;20153;-80
2024/01/22 00:12:16;;;;;;;5.53;2.57;;;;;-1.10;94513.00;;;;7398613;19;20141;-79
2024/01/22 00:14:51;;;;;;;5.67;2.60;;;;;-1.00;94518.00;;;;7399012;19;20157;-79
2024/01/22 00:17:19;;;;;;;6.60;2.03;;;;;-1.00;94503.00;;;;7395562;19;20514;-80
2024/01/22 00:19:54;;;;;;;5.47;2.37;;;;;-1.20;94494.00;;;;7398465;19;20622;-79
2024/01/22 00:22:22;;;;;;;5.03;2.20;;;;;-1.20;94491.00;;;;7396639;19;20145;-79
2024/01/22 00:24:56;;;;;;;3.63;1.90;;;;;-1.10;94481.00;;;;7396466;19;20143;-79
2024/01/22 00:27:30;;;;;;;3.37;2.33;;;;;-0.90;94482.00;;;;7396646;19;20133;-78
2024/01/22 00:30:06;;;;;;;5.60;2.43;;;;;-1.20;94476.00;;;;7397065;19;20177;-80
2024/01/22 00:32:41;;;;;;;4.70;2.33;;;;;-1.20;94463.00;;;;7397468;19;20174;-78
2024/01/22 00:35:16;;;;;;;3.37;2.30;;;;;-1.30;94467.00;;;;7397442;19;20166;-79
2024/01/22 00:37:51;;;;;;;7.33;2.30;;;;;-1.30;94467.00;;;;7398517;19;20546;-80
2024/01/22 00:40:25;;;;;;;3.63;2.20;;;;;-1.20;94447.00;;;;7399504;19;20133;-81
2024/01/22 00:42:52;;;;;;;4.93;2.60;;;;;-1.20;94435.00;;;;7398196;19;20613;-79
2024/01/22 00:45:27;;;;;;;3.13;1.90;;;;;-1.40;94427.00;;;;7402049;19;20144;-83
2024/01/22 00:47:56;;;;;;;4.23;1.93;;;;;-1.20;94422.00;;;;7407180;19;20147;-81
2024/01/22 00:50:30;;;;;;;3.13;1.53;;;;;-0.60;94426.00;;;;7407246;19;20144;-83
2024/01/22 00:52:58;;;;;;;4.20;1.33;;;;;0.20;94427.00;;;;7408048;19;20600;-83
2024/01/22 00:55:32;;;;;;;5.73;1.37;;;;;1.40;94420.00;;;;7411598;19;20151;-83
2024/01/22 00:58:06;;;;;;;2.43;1.20;;;;;1.80;94420.00;;;;7411532;19;20136;-83
2024/01/22 01:00:40;;;;;;;4.20;1.20;;;;;2.20;94416.00;;;;7409412;19;20144;-83
2024/01/22 01:03:14;;;;;;;0.97;0.80;;;;;2.40;94418.00;;;;7414110;19;20148;-83
2024/01/22 01:05:48;;;;;;;2.43;1.23;;;;;2.60;94414.00;;;;7420840;19;20196;-83
2024/01/22 01:08:23;;;;;;;1.83;0.57;;;;;2.70;94399.00;;;;7418277;19;20212;-83
2024/01/22 01:10:50;;;;;;;0.70;0.70;;;;;2.80;94413.00;;;;7413717;19;20611;-82
2024/01/22 01:13:25;;;;;;;0.70;0.60;;;;;2.80;94413.00;;;;7407284;19;20149;-83
2024/01/22 01:15:53;;;;;;;1.30;0.80;;;;;2.90;94409.00;;;;7413707;19;20621;-83
2024/01/22 01:18:27;;;;;;;2.70;0.80;;;;;3.00;94406.00;;;;7411725;19;20149;-82
2024/01/22 01:21:02;;;;;;;1.30;0.67;;;;;3.20;94411.00;;;;7413490;19;20144;-83
2024/01/22 01:23:36;;;;;;;2.00;0.63;;;;;3.30;94415.00;;;;7412074;19;20137;-82
2024/01/22 01:26:04;;;;;;;1.27;0.90;;;;;3.10;94409.00;;;;7411940;19;20145;-83
2024/01/22 01:28:38;;;;;;;0.77;0.53;;;;;3.20;94403.00;;;;7410202;19;20204;-84
2024/01/22 01:31:05;;;;;;;0.30;0.30;;;;;3.20;94404.00;;;;7410078;19;20474;-82
2024/01/22 01:33:41;;;;;;;1.67;0.60;;;;;3.10;94408.00;;;;7408711;19;20204;-82
2024/01/22 01:36:09;;;;;;;0.70;0.50;;;;;3.00;94413.00;;;;7409261;19;20144;-84
2024/01/22 01:38:37;;;;;;;1.67;1.13;;;;;3.20;94412.00;;;;7413145;19;20121;-83
2024/01/22 01:41:11;;;;;;;1.07;0.60;;;;;3.50;94407.00;;;;7413665;19;20535;-84
2024/01/22 01:43:39;;;;;;;1.07;0.53;;;;;3.80;94412.00;;;;7413306;19;20141;-83
2024/01/22 01:46:07;;;;;;;1.73;0.60;;;;;3.90;94408.00;;;;7418394;19;20151;-82
2024/01/22 01:48:42;;;;;;;0.60;0.43;;;;;4.00;94409.00;;;;7411848;19;20148;-84
2024/01/22 01:51:10;;;;;;;0.60;0.40;;;;;4.10;94409.00;;;;7414366;19;20209;-83
2024/01/22 01:53:47;;;;;;;0.93;0.50;;;;;4.10;94409.00;;;;7411202;19;20129;-83
2024/01/22 01:56:15;;;;;;;1.00;0.40;;;;;4.00;94398.00;;;;7401147;19;20145;-79
2024/01/22 01:58:49;;;;;;;0.50;0.40;;;;;4.20;94396.00;;;;7403037;19;20645;-79
2024/01/22 02:01:17;;;;;;;0.57;0.40;;;;;4.10;94393.00;;;;7401879;19;20154;-79
2024/01/22 02:04:04;;;;;;;1.27;0.70;;;;;4.00;94400.00;;;;7401330;19;20214;-79
2024/01/22 02:06:40;;;;;;;0.67;0.40;;;;;3.90;94400.00;;;;7403315;19;20133;-79
2024/01/22 02:09:15;;;;;;;1.17;0.40;;;;;3.90;94405.00;;;;7400922;19;20579;-79
2024/01/22 02:11:50;;;;;;;0.67;0.37;;;;;3.90;94415.00;;;;7401821;19;20136;-79
2024/01/22 02:14:24;;;;;;;1.57;0.43;;;;;4.00;94406.00;;;;7402165;19;20585;-79
2024/01/22 02:17:00;;;;;;;2.33;0.50;;;;;4.10;94408.00;;;;7400731;19;20200;-79
2024/01/22 02:19:35;;;;;;;0.43;0.40;;;;;4.30;94401.00;;;;7398473;19;20480;-80
2024/01/22 02:22:10;;;;;;;0.37;0.37;;;;;4.30;94395.00;;;;7400896;19;20124;-78
2024/01/22 02:24:50;;;;;;;1.57;0.60;;;;;4.30;94388.00;;;;7398627;19;20150;-79
2024/01/22 02:27:25;;;;;;;1.37;0.50;;;;;4.20;94395.00;;;;7401092;19;20152;-79
2024/01/22 02:29:59;;;;;;;1.30;0.70;;;;;4.40;94401.00;;;;7400543;19;20156;-79
2024/01/22 02:32:26;;;;;;;0.50;0.33;;;;;4.50;94393.00;;;;7400861;19;20727;-79
2024/01/22 02:35:01;;;;;;;1.20;0.50;;;;;4.40;94395.00;;;;7401495;19;20159;-80
2024/01/22 02:37:29;;;;;;;0.70;0.43;;;;;4.40;94381.00;;;;7399903;19;20645;-81
2024/01/22 02:40:03;;;;;;;1.80;0.63;;;;;4.20;94387.00;;;;7401090;19;20144;-78
2024/01/22 02:42:31;;;;;;;0.77;0.53;;;;;4.40;94385.00;;;;7399715;19;20204;-79
2024/01/22 02:45:00;;;;;;;2.53;0.50;;;;;4.30;94378.00;;;;7399984;19;20132;-80
2024/01/22 02:47:35;;;;;;;0.50;0.50;;;;;4.40;94382.00;;;;7400782;19;20165;-78
2024/01/22 02:50:09;;;;;;;1.20;0.60;;;;;4.50;94362.00;;;;7399855;19;20133;-78
2024/01/22 02:52:37;;;;;;;0.57;0.30;;;;;4.50;94375.00;;;;7400607;19;20145;-78
2024/01/22 02:55:11;;;;;;;0.90;0.57;;;;;4.30;94371.00;;;;7399905;19;20140;-78
2024/01/22 02:57:47;;;;;;;0.73;0.50;;;;;3.90;94370.00;;;;7400432;19;20154;-80
2024/01/22 03:00:15;;;;;;;0.37;0.23;;;;;3.60;94359.00;;;;7398985;19;20624;-79
2024/01/22 03:02:44;;;;;;;1.10;0.60;;;;;3.20;94361.00;;;;7396309;19;20161;-79
2024/01/22 03:05:25;;;;;;;1.27;0.53;;;;;3.10;94362.00;;;;7397766;19;20621;-79
2024/01/22 03:08:00;;;;;;;0.87;0.50;;;;;2.70;94359.00;;;;7400914;19;20129;-79
2024/01/22 03:10:28;;;;;;;0.90;0.70;;;;;2.60;94349.00;;;;7400474;19;20603;-77
2024/01/22 03:13:02;;;;;;;1.10;0.57;;;;;2.40;94348.00;;;;7400916;19;20129;-78
2024/01/22 03:15:30;;;;;;;3.17;0.80;;;;;2.40;94344.00;;;;7399250;19;20125;-78
2024/01/22 03:18:04;;;;;;;3.53;1.10;;;;;2.30;94325.00;;;;7398867;19;20128;-78
2024/01/22 03:20:33;;;;;;;1.43;0.90;;;;;2.20;94325.00;;;;7397301;19;20495;-77
2024/01/22 03:23:08;;;;;;;3.87;1.23;;;;;2.20;94328.00;;;;7398644;19;20148;-80
2024/01/22 03:25:35;;;;;;;4.10;1.17;;;;;2.30;94337.00;;;;7398821;19;20128;-78
2024/01/22 03:28:10;;;;;;;1.23;1.00;;;;;2.40;94327.00;;;;7397861;19;20612;-81
2024/01/22 03:30:37;;;;;;;4.43;1.20;;;;;2.30;94320.00;;;;7398667;19;20649;-79
2024/01/22 03:33:12;;;;;;;1.20;1.10;;;;;2.30;94317.00;;;;7397923;19;20196;-78
2024/01/22 03:35:39;;;;;;;1.33;1.10;;;;;2.30;94315.00;;;;7399849;19;20129;-79
2024/01/22 03:38:14;;;;;;;2.00;1.47;;;;;2.20;94317.00;;;;7397671;19;20151;-78
2024/01/22 03:40:41;;;;;;;3.43;1.53;;;;;2.40;94316.00;;;;7398330;19;20162;-79
2024/01/22 03:43:17;;;;;;;2.17;1.07;;;;;2.20;94308.00;;;;7398372;19;20172;-78
2024/01/22 03:45:46;;;;;;;2.53;1.20;;;;;1.80;94310.00;;;;7396323;19;20237;-79
2024/01/22 03:48:20;;;;;;;1.80;0.90;;;;;1.80;94299.00;;;;7398762;19;20148;-80
2024/01/22 03:50:54;;;;;;;3.03;1.37;;;;;1.90;94302.00;;;;7398451;19;20153;-79
2024/01/22 03:53:22;;;;;;;2.60;1.20;;;;;1.90;94297.00;;;;7398781;19;20149;-80
2024/01/22 03:55:56;;;;;;;2.60;1.47;;;;;1.90;94289.00;;;;7397793;19;20624;-78
2024/01/22 03:58:33;;;;;;;1.67;1.50;;;;;1.90;94296.00;;;;7397989;19;20148;-79
2024/01/22 04:01:01;;;;;;;3.47;1.30;;;;;2.00;94296.00;;;;7399711;19;20137;-79
2024/01/22 04:03:36;;;;;;;1.90;1.30;;;;;2.00;94299.00;;;;7398044;19;20116;-79
2024/01/22 04:06:18;;;;;;;1.87;1.50;;;;;1.90;94296.00;;;;7395897;19;20140;-78
2024/01/22 04:08:53;;;;;;;1.63;1.30;;;;;1.60;94291.00;;;;7397999;19;20133;-79
2024/01/22 04:11:27;;;;;;;2.27;1.30;;;;;1.60;94286.00;;;;7397842;19;20149;-78
2024/01/22 04:14:01;;;;;;;1.80;1.37;;;;;1.50;94288.00;;;;7397681;19;20139;-79
2024/01/22 04:16:28;;;;;;;3.50;1.40;;;;;1.40;94283.00;;;;7397018;19;20145;-80
2024/01/22 04:19:03;;;;;;;1.30;1.20;;;;;1.20;94273.00;;;;7397074;19;20187;-80
2024/01/22 04:21:31;;;;;;;2.37;1.80;;;;;1.10;94283.00;;;;7393390;19;20152;-79
2024/01/22 04:24:05;;;;;;;2.67;1.60;;;;;1.00;94282.00;;;;7398429;19;20124;-80
2024/01/22 04:26:32;;;;;;;2.30;1.50;;;;;0.90;94276.00;;;;7396260;19;20144;-81
2024/01/22 04:29:07;;;;;;;2.97;1.50;;;;;0.80;94272.00;;;;7396829;19;20140;-80
2024/01/22 04:31:36;;;;;;;2.53;1.77;;;;;1.50;94262.00;;;;7397295;19;20125;-78
2024/01/22 04:34:11;;;;;;;2.47;1.30;;;;;1.90;94260.00;;;;7397785;19;20612;-78
2024/01/22 04:36:39;;;;;;;1.20;0.60;;;;;3.40;94269.00;;;;7396022;19;20129;-81
2024/01/22 04:39:14;;;;;;;0.77;0.40;;;;;4.70;94257.00;;;;7404039;19;20152;-79
2024/01/22 04:41:41;;;;;;;0.57;0.50;;;;;5.40;94254.00;;;;7405598;19;20132;-80
2024/01/22 04:44:09;;;;;;;1.27;0.30;;;;;6.10;94248.00;;;;7402664;19;20579;-80
2024/01/22 04:46:43;;;;;;;0.93;0.50;;;;;6.60;94259.00;;;;7402580;19;20608;-80
2024/01/22 04:49:10;;;;;;;0.33;0.30;;;;;6.80;94243.00;;;;7404297;19;20165;-81
2024/01/22 04:51:45;;;;;;;0.50;0.47;;;;;6.80;94250.00;;;;7404253;19;20155;-80
2024/01/22 04:54:13;;;;;;;1.33;0.30;;;;;6.90;94239.00;;;;7404803;19;20133;-81
2024/01/22 04:56:48;;;;;;;0.43;0.40;;;;;6.90;94255.00;;;;7405998;19;20124;-81
2024/01/22 04:59:22;;;;;;;0.90;0.60;;;;;7.00;94233.00;;;;7405722;19;20488;-81
2024/01/22 05:01:56;;;;;;;1.13;0.50;;;;;6.80;94226.00;;;;7403396;19;20141;-79
2024/01/22 05:04:30;;;;;;;0.73;0.47;;;;;7.00;94239.00;;;;7403693;19;20175;-80
2024/01/22 05:07:12;;;;;;;1.90;0.50;;;;;7.10;94240.00;;;;7401169;19;20149;-80
2024/01/22 05:09:47;;;;;;;1.00;0.40;;;;;7.10;94229.00;;;;7404058;19;20204;-81
2024/01/22 05:12:21;;;;;;;0.73;0.30;;;;;7.20;94224.00;;;;7404343;19;20600;-79
2024/01/22 05:14:55;;;;;;;1.13;0.60;;;;;7.50;94233.00;;;;7404414;19;20145;-79
2024/01/22 05:17:29;;;;;;;1.07;0.53;;;;;7.50;94232.00;;;;7404282;19;20628;-80
2024/01/22 05:19:56;;;;;;;2.67;0.50;;;;;7.60;94215.00;;;;7402927;19;20193;-83
2024/01/22 05:22:34;;;;;;;0.77;0.50;;;;;7.60;94233.00;;;;7402487;19;20140;-81
2024/01/22 05:25:03;;;;;;;1.03;0.67;;;;;7.70;94219.00;;;;7406484;19;20148;-81
2024/01/22 05:27:37;;;;;;;1.13;0.63;;;;;7.60;94209.00;;;;7404221;19;20148;-80
2024/01/22 05:30:12;;;;;;;0.30;0.30;;;;;7.60;94214.00;;;;7405273;19;20716;-80
2024/01/22 05:32:52;;;;;;;1.40;0.60;;;;;7.60;94196.00;;;;7405334;19;20644;-83
2024/01/22 05:35:28;;;;;;;1.33;0.43;;;;;7.50;94217.00;;;;7404822;19;20156;-82
2024/01/22 05:38:03;;;;;;;0.57;0.53;;;;;7.50;94220.00;;;;7405393;19;20140;-82
2024/01/22 05:40:37;;;;;;;0.90;0.33;;;;;7.40;94205.00;;;;7403737;19;20563;-80
2024/01/22 05:43:11;;;;;;;1.37;0.67;;;;;7.50;94208.00;;;;7401035;19;20156;-79
2024/01/22 05:46:01;;;;;;;1.53;0.50;;;;;7.50;94218.00;;;;7401439;19;20196;-82
2024/01/22 05:48:43;;;;;;;1.13;0.60;;;;;7.50;94214.00;;;;7401927;19;20148;-82
2024/01/22 05:51:11;;;;;;;1.23;0.57;;;;;7.40;94215.00;;;;7405422;19;20132;-82
2024/01/22 05:53:46;;;;;;;1.00;0.57;;;;;7.60;94203.00;;;;7406015;19;20152;-79
2024/01/22 05:56:27;;;;;;;1.57;0.63;;;;;7.60;94211.00;;;;7401770;19;20141;-81
2024/01/22 05:59:03;;;;;;;1.47;0.60;;;;;7.50;94196.00;;;;7403657;19;20533;-80
2024/01/22 06:01:31;;;;;;;2.43;0.60;;;;;7.60;94224.00;;;;7405209;19;20129;-81
2024/01/22 06:04:10;;;;;;;0.70;0.50;;;;;7.70;94238.00;;;;7406452;19;20129;-81
2024/01/22 06:06:51;;;;;;;1.70;0.90;;;;;7.50;94214.00;;;;7406309;19;20647;-80
2024/01/22 06:09:31;;;;;;;1.93;0.57;;;;;7.60;94217.00;;;;7398056;19;20210;-80
2024/01/22 06:11:59;;;;;;;2.67;0.80;;;;;7.50;94214.00;;;;7400098;19;20145;-80
2024/01/22 06:14:37;;;;;;;1.97;0.90;;;;;7.50;94211.00;;;;7400894;19;20148;-83
2024/01/22 06:17:08;;;;;;;1.30;0.70;;;;;7.50;94200.00;;;;7403109;19;20604;-83
2024/01/22 06:19:42;;;;;;;0.80;0.60;;;;;7.60;94204.00;;;;7399178;19;20140;-81
2024/01/22 06:22:18;;;;;;;1.40;0.80;;;;;7.60;94203.00;;;;7400698;19;20157;-82
2024/01/22 06:24:47;;;;;;;1.47;0.60;;;;;7.40;94216.00;;;;7399507;19;20152;-81
2024/01/22 06:27:23;;;;;;;2.37;0.90;;;;;7.60;94209.00;;;;7401963;19;20144;-81
2024/01/22 06:29:59;;;;;;;3.37;0.87;;;;;7.60;94221.00;;;;7402735;19;20156;-80
2024/01/22 06:32:36;;;;;;;2.00;0.70;;;;;7.60;94214.00;;;;7400459;19;20152;-81
2024/01/22 06:35:11;;;;;;;1.00;0.90;;;;;7.60;94210.00;;;;7399426;19;20152;-81
2024/01/22 06:37:46;;;;;;;1.13;0.80;;;;;7.80;94223.00;;;;7398917;19;20621;-81
2024/01/22 06:40:22;;;;;;;1.17;0.70;;;;;7.60;94227.00;;;;7398889;19;20612;-80
2024/01/22 06:42:56;;;;;;;0.60;0.60;;;;;7.60;94207.00;;;;7400076;19;20196;-80
2024/01/22 06:45:25;;;;;;;3.63;0.70;;;;;7.60;94202.00;;;;7399132;19;20148;-80
2024/01/22 06:48:01;;;;;;;2.63;0.90;;;;;7.60;94203.00;;;;7398846;19;20156;-81
2024/01/22 06:50:37;;;;;;;3.93;0.80;;;;;7.60;94210.00;;;;7399713;19;20617;-80
2024/01/22 06:53:13;;;;;;;0.77;0.63;;;;;7.50;94227.00;;;;7400683;19;20149;-81
2024/01/22 06:55:50;;;;;;;2.00;0.73;;;;;7.60;94222.00;;;;7400896;19;20244;-78
2024/01/22 06:58:20;;;;;;;1.23;0.60;;;;;7.50;94218.00;;;;7400537;19;20141;-80
2024/01/22 07:00:51;;;;;;;1.27;0.70;;;;;7.70;94225.00;;;;7399648;19;20597;-79
2024/01/22 07:03:27;;;;;;;1.63;0.60;;;;;7.60;94225.00;;;;7403930;19;20148;-81
2024/01/22 07:06:10;;;;;;;1.97;0.60;;;;;7.60;94233.00;;;;7403616;19;20172;-79
2024/01/22 07:08:53;;;;;;;1.47;0.87;;;;;7.60;94240.00;;;;7401215;19;20163;-81
2024/01/22 07:11:27;;;;;;;2.10;0.80;;;;;7.60;94240.00;;;;7402436;19;20149;-81
2024/01/22 07:13:55;;;;;;;1.23;0.60;;;;;7.50;94227.00;;;;7401851;19;20521;-78
2024/01/22 07:16:32;;;;;;;1.50;0.90;;;;;7.70;94228.00;;;;7402002;19;20615;-80
2024/01/22 07:19:06;;;;;;;1.97;0.80;;;;;7.60;94219.00;;;;7399694;19;20141;-79
2024/01/22 07:21:35;;;;;;;1.10;0.70;;;;;7.60;94225.00;;;;7399884;19;20156;-78
2024/01/22 07:24:11;;;;;;;1.33;0.80;;;;;7.80;94238.00;;;;7401808;19;20589;-81
2024/01/22 07:26:43;;;;;;;1.10;0.80;;;;;7.70;94224.00;;;;7400755;19;20155;-80
2024/01/22 07:29:19;;;;;;;2.10;1.10;;;;;7.70;94225.00;;;;7402274;19;20129;-80
2024/01/22 07:31:47;;;;;;;2.17;0.60;;;;;7.70;94222.00;;;;7400783;19;20637;-78
2024/01/22 07:34:25;;;;;;;1.27;0.93;;;;;7.70;94204.00;;;;7403221;19;20148;-80
2024/01/22 07:36:53;;;;;;;2.00;0.83;;;;;7.50;94208.00;;;;7401289;19;20511;-78
2024/01/22 07:39:32;;;;;;;2.87;0.80;;;;;7.50;94209.00;;;;7402169;19;20514;-81
2024/01/22 07:42:08;;;;;;;2.10;1.13;;;;;7.50;94197.00;;;;7400207;19;20196;-81
2024/01/22 07:44:36;;;;;;;1.97;1.00;;;;;7.40;94191.00;;;;7400406;19;20205;-81
2024/01/22 07:47:12;;;;;;;3.93;1.00;;;;;7.30;94193.00;;;;7399825;19;20211;-78
2024/01/22 07:49:46;;;;;;;2.27;0.90;;;;;7.30;94189.00;;;;7401770;19;20149;-81
2024/01/22 07:52:24;;;;;;;3.30;0.90;;;;;7.30;94201.00;;;;7401344;19;20172;-77
2024/01/22 07:54:58;;;;;;;1.60;0.93;;;;;7.30;94179.00;;;;7400300;19;20645;-80
2024/01/22 07:57:38;;;;;;;1.70;0.93;;;;;7.30;94183.00;;;;7398801;19;20148;-80
2024/01/22 08:00:11;;;;;;;3.90;1.07;;;;;7.30;94189.00;;;;7397668;19;20173;-80
2024/01/22 08:02:46;;;;;;;1.70;0.80;;;;;7.10;94179.00;;;;7395891;19;20137;-78
2024/01/22 08:05:33;;;;;;;2.40;1.00;;;;;6.90;94168.00;;;;7396132;19;20164;-80
2024/01/22 08:08:12;;;;;;;2.00;1.03;;;;;6.30;94171.00;;;;7394795;19;20523;-78
2024/01/22 08:10:40;;;;;;;2.50;0.77;;;;;6.20;94167.00;;;;7395351;19;20144;-77
2024/01/22 08:13:15;;;;;;;3.03;1.00;;;;;6.10;94168.00;;;;7395049;19;20157;-78
2024/01/22 08:15:53;;;;;;;1.00;0.73;;;;;6.10;94169.00;;;;7396635;19;20743;-80
2024/01/22 08:18:28;;;;;;;1.30;0.87;;;;;6.00;94146.00;;;;7394351;19;20145;-79
2024/01/22 08:20:57;;;;;;;3.30;0.90;;;;;5.90;94173.00;;;;7396925;19;20624;-79
2024/01/22 08:23:31;;;;;;;1.83;0.87;;;;;5.80;94173.00;;;;7397702;19;20242;-79
2024/01/22 08:26:06;;;;;;;4.03;1.17;;;;;5.90;94170.00;;;;7396447;19;20149;-79
2024/01/22 08:28:41;;;;;;;1.50;0.70;;;;;5.90;94171.00;;;;7395151;19;20152;-79
2024/01/22 08:31:15;;;;;;;1.63;0.80;;;;;5.90;94173.00;;;;7395129;19;20180;-79
2024/01/22 08:33:50;;;;;;;1.37;0.73;;;;;6.10;94169.00;;;;7395879;19;20233;-79
2024/01/22 08:36:18;;;;;;;3.03;0.80;;;;;6.20;94172.00;;;;7396059;19;20157;-79
2024/01/22 08:38:53;;;;;;;3.13;0.80;;;;;6.20;94168.00;;;;7395042;19;20155;-80
2024/01/22 08:41:26;;;;;;;0.80;0.73;;;;;6.20;94170.00;;;;7395731;19;20629;-79
2024/01/22 08:44:03;;;;;;;2.70;1.00;;;;;6.30;94176.00;;;;7395520;19;20240;-78
2024/01/22 08:46:31;;;;;;;1.50;0.70;;;;;6.60;94164.00;;;;7395436;19;20129;-78
2024/01/22 08:49:05;;;;;;;1.03;0.73;;;;;6.50;94154.00;;;;7393642;19;20161;-78
2024/01/22 08:51:33;;;;;;;1.30;0.93;;;;;6.70;94185.00;;;;7394603;19;20165;-78
2024/01/22 08:54:05;;;;;;;1.13;0.97;;;;;6.60;94171.00;;;;7394341;19;20141;-79
2024/01/22 08:56:40;;;;;;;1.67;0.73;;;;;6.40;94168.00;;;;7394716;19;20152;-79
2024/01/22 08:59:08;;;;;;;1.00;0.70;;;;;6.30;94153.00;;;;7395054;19;20493;-77
2024/01/22 09:01:43;;;;;;;1.00;0.90;;;;;6.60;94156.00;;;;7395588;19;20141;-78
2024/01/22 09:04:11;;;;;;;1.83;1.10;;;;;6.60;94162.00;;;;7393893;19;20151;-80
2024/01/22 09:06:51;;;;;;;1.80;1.00;;;;;6.70;94149.00;;;;7394227;19;20176;-82
2024/01/22 09:09:27;;;;;;;2.67;1.23;;;;;6.60;94146.00;;;;7398254;19;20153;-83
2024/01/22 09:12:01;;;;;;;1.80;1.00;;;;;6.50;94158.00;;;;7397286;19;20153;-82
2024/01/22 09:14:30;;;;;;;3.40;0.93;;;;;6.30;94142.00;;;;7396527;19;20165;-82
2024/01/22 09:17:04;;;;;;;3.27;1.13;;;;;6.60;94152.00;;;;7394629;19;20146;-81
2024/01/22 09:19:39;;;;;;;0.90;0.77;;;;;6.60;94151.00;;;;7390416;19;20141;-82
2024/01/22 09:22:07;;;;;;;1.37;0.80;;;;;6.60;94159.00;;;;7390885;19;20145;-81
2024/01/22 09:24:42;;;;;;;1.03;0.77;;;;;6.80;94142.00;;;;7390753;19;20157;-81
2024/01/22 09:27:10;;;;;;;1.50;0.80;;;;;6.90;94139.00;;;;7396337;19;20485;-82
2024/01/22 09:29:44;;;;;;;0.80;0.80;;;;;6.80;94160.00;;;;7395760;19;20136;-80
2024/01/22 09:32:19;;;;;;;0.97;0.70;;;;;6.90;94163.00;;;;7393851;19;20141;-80
2024/01/22 09:34:47;;;;;;;0.87;0.70;;;;;6.80;94164.00;;;;7395190;19;20149;-80
2024/01/22 09:37:21;;;;;;;1.00;0.70;;;;;6.90;94166.00;;;;7396898;19;20135;-81
2024/01/22 09:39:50;;;;;;;2.97;0.90;;;;;7.00;94166.00;;;;7394293;19;20510;-81
2024/01/22 09:42:28;;;;;;;0.63;0.63;;;;;6.70;94157.00;;;;7396132;19;20173;-81
2024/01/22 09:44:58;;;;;;;0.80;0.67;;;;;6.80;94139.00;;;;7394579;19;20149;-82
2024/01/22 09:47:32;;;;;;;1.73;1.00;;;;;6.80;94159.00;;;;7397763;19;20136;-82
2024/01/22 09:50:01;;;;;;;1.00;0.80;;;;;6.80;94150.00;;;;7396255;19;20149;-81
2024/01/22 09:52:40;;;;;;;1.10;0.80;;;;;6.70;94151.00;;;;7397715;19;20641;-81
2024/01/22 09:55:09;;;;;;;0.60;0.60;;;;;6.60;94140.00;;;;7399757;19;20148;-80
2024/01/22 09:57:46;;;;;;;1.83;0.80;;;;;6.40;94143.00;;;;7393078;19;20148;-79
2024/01/22 10:00:26;;;;;;;3.37;0.77;;;;;6.60;94135.00;;;;7392959;19;20152;-80
2024/01/22 10:03:00;;;;;;;0.63;0.63;;;;;6.60;94137.00;;;;7392612;19;20497;-79
2024/01/22 10:05:34;;;;;;;1.53;0.70;;;;;6.60;94125.00;;;;7392628;19;20174;-80
2024/01/22 10:08:09;;;;;;;3.83;1.00;;;;;6.50;94125.00;;;;7394760;19;20161;-79
2024/01/22 10:10:37;;;;;;;1.23;0.83;;;;;6.60;94128.00;;;;7391495;19;20148;-80
2024/01/22 10:13:20;;;;;;;0.50;0.40;;;;;6.70;94122.00;;;;7391770;19;20163;-80
2024/01/22 10:16:08;;;;;;;1.30;0.70;;;;;6.50;94105.00;;;;7393925;19;20616;-80
2024/01/22 10:18:39;;;;;;;0.70;0.70;;;;;6.60;94109.00;;;;7393422;19;20121;-80
2024/01/22 10:21:19;;;;;;;1.27;0.77;;;;;6.70;94113.00;;;;7391652;19;20604;-81
2024/01/22 10:23:56;;;;;;;0.90;0.80;;;;;6.60;94102.00;;;;7394240;19;20161;-79
2024/01/22 10:26:31;;;;;;;1.67;0.90;;;;;6.80;94093.00;;;;7390969;19;20148;-81
2024/01/22 10:29:21;;;;;;;1.23;0.67;;;;;6.80;94084.00;;;;7391104;19;20140;-79
2024/01/22 10:31:59;;;;;;;1.40;0.80;;;;;6.80;94086.00;;;;7392884;19;20212;-80
2024/01/22 10:34:50;;;;;;;1.40;0.70;;;;;6.90;94071.00;;;;7393722;19;20173;-79
2024/01/22 10:37:26;;;;;;;1.30;0.60;;;;;6.90;94073.00;;;;7395413;19;20220;-79
2024/01/22 10:40:02;;;;;;;1.57;0.70;;;;;7.00;94076.00;;;;7391679;19;20137;-79
2024/01/22 10:42:37;;;;;;;0.70;0.57;;;;;7.10;94062.00;;;;7391867;19;20156;-78
2024/01/22 10:45:10;;;;;;;1.00;0.50;;;;;7.20;94055.00;;;;7393410;19;20628;-79
2024/01/22 10:47:45;;;;;;;1.90;0.70;;;;;7.50;94052.00;;;;7393327;19;20660;-81
2024/01/22 10:50:23;;;;;;;0.23;0.23;;;;;7.50;94043.00;;;;7392529;19;20140;-78
2024/01/22 10:52:58;;;;;;;1.13;0.40;;;;;7.50;94038.00;;;;7390234;19;20161;-79
2024/01/22 10:55:32;;;;;;;0.50;0.40;;;;;7.70;94039.00;;;;7392586;19;20211;-82
2024/01/22 10:58:33;;;;;;;0.37;0.23;;;;;7.80;94025.00;;;;7393062;19;20132;-79
2024/01/22 11:01:05;;;;;;;0.40;0.30;;;;;8.20;93998.00;;;;7389136;19;20507;-80
2024/01/22 11:03:52;;;;;;;1.60;0.50;;;;;8.20;94015.00;;;;7392783;19;20133;-78
2024/01/22 11:06:34;;;;;;;1.00;0.50;;;;;8.10;94009.00;;;;7392231;19;20177;-79
2024/01/22 11:09:11;;;;;;;1.07;0.43;;;;;8.10;94019.00;;;;7392089;19;20609;-79
2024/01/22 11:11:50;;;;;;;0.38;0.30;;;;;8.10;94002.00;;;;7391438;19;20493;-79
2024/01/22 11:14:24;;;;;;;0.30;0.30;;;;;8.10;94025.00;;;;7391853;19;20187;-80
2024/01/22 11:16:52;;;;;;;0.50;0.40;;;;;8.00;94013.00;;;;7389828;19;20162;-76
2024/01/22 11:19:26;;;;;;;0.30;0.30;;;;;8.30;93992.00;;;;7391350;19;20143;-80
2024/01/22 11:22:26;;;;;;;0.40;0.35;;;;;8.30;94015.00;;;;7390926;19;20133;-82
2024/01/22 11:25:12;;;;;;;2.27;0.37;;;;;8.10;94006.00;;;;7390456;19;20152;-78
2024/01/22 11:27:46;;;;;;;0.50;0.23;;;;;8.00;94000.00;;;;7389899;19;20145;-76
2024/01/22 11:30:22;;;;;;;0.40;0.40;;;;;7.90;94009.00;;;;7390352;19;20152;-75
2024/01/22 11:32:57;;;;;;;1.23;0.50;;;;;7.90;94008.00;;;;7390151;19;20144;-75
2024/01/22 11:35:37;;;;;;;3.30;0.50;;;;;8.10;94016.00;;;;7390815;19;20492;-77
2024/01/22 11:38:12;;;;;;;0.60;0.47;;;;;7.80;94002.00;;;;7390188;19;20558;-75
2024/01/22 11:40:50;;;;;;;0.40;0.40;;;;;8.00;93988.00;;;;7389206;19;20132;-75
2024/01/22 11:43:25;;;;;;;0.57;0.23;;;;;7.90;93987.00;;;;7390273;19;20176;-76
2024/01/22 11:46:16;;;;;;;0.47;0.30;;;;;8.20;94012.00;;;;7391062;19;20191;-80
2024/01/22 11:48:44;;;;;;;0.30;0.30;;;;;8.30;93996.00;;;;7386520;19;20133;-80
2024/01/22 11:51:25;;;;;;;0.60;0.40;;;;;8.20;93988.00;;;;7391385;19;20128;-76
2024/01/22 11:53:56;;;;;;;1.53;0.40;;;;;8.40;93990.00;;;;7391662;19;20164;-77
2024/01/22 11:56:31;;;;;;;0.20;0.20;;;;;8.40;93985.00;;;;7389973;19;20224;-76
2024/01/22 11:59:05;;;;;;;0.20;0.20;;;;;8.50;93988.00;;;;7389749;19;20124;-76
2024/01/22 12:01:42;;;;;;;0.40;0.23;;;;;8.50;93982.00;;;;7389308;19;20168;-76
2024/01/22 12:04:10;;;;;;;0.93;0.53;;;;;8.30;93974.00;;;;7388661;19;20161;-77
2024/01/22 12:06:58;;;;;;;0.30;0.30;;;;;8.40;93967.00;;;;7387463;19;20188;-77
2024/01/22 12:09:36;;;;;;;0.43;0.20;;;;;8.10;93985.00;;;;7389119;19;20148;-78
2024/01/22 12:12:12;;;;;;;0.23;0.23;;;;;8.20;93966.00;;;;7391072;19;20149;-79
2024/01/22 12:14:39;;;;;;;0.70;0.40;;;;;8.00;93974.00;;;;7388971;19;20144;-76
2024/01/22 12:17:14;;;;;;;1.70;0.50;;;;;8.10;93968.00;;;;7390467;19;20590;-78
2024/01/22 12:19:56;;;;;;;0.57;0.50;;;;;8.20;93972.00;;;;7387876;19;20155;-78
2024/01/22 12:22:28;;;;;;;0.10;0.10;;;;;8.00;93951.00;;;;7390383;19;20646;-80
2024/01/22 12:25:03;;;;;;;0.20;0.20;;;;;8.10;93957.00;;;;7390432;19;20151;-77
2024/01/22 12:27:32;;;;;;;0.30;0.30;;;;;8.10;93971.00;;;;7388741;19;20145;-76
2024/01/22 12:30:04;;;;;;;0.30;0.30;;;;;8.20;93960.00;;;;7389562;19;20152;-79
2024/01/22 12:32:38;;;;;;;0.37;0.37;;;;;8.30;93968.00;;;;7388353;19;21036;-76
2024/01/22 12:35:07;;;;;;;1.30;0.30;;;;;8.50;93947.00;;;;7390357;19;20136;-78
2024/01/22 12:37:41;;;;;;;0.50;0.47;;;;;8.50;93932.00;;;;7388506;19;20505;-79
2024/01/22 12:40:15;;;;;;;1.37;0.87;;;;;8.70;93946.00;;;;7388025;19;20152;-77
2024/01/22 12:42:57;;;;;;;0.57;0.50;;;;;8.80;93916.00;;;;7388383;19;20287;-78
2024/01/22 12:45:26;;;;;;;1.55;0.43;;;;;8.90;93919.00;;;;7388397;19;20152;-79
2024/01/22 12:48:00;;;;;;;0.20;0.20;;;;;8.70;93903.00;;;;7389199;19;20143;-76
2024/01/22 12:50:32;;;;;;;0.10;0.10;;;;;8.80;93907.00;;;;7387843;19;20208;-76
2024/01/22 12:53:07;;;;;;;0.55;0.32;;;;;8.90;93898.00;;;;7387307;19;20200;-76
2024/01/22 12:55:42;;;;;;;0.50;0.30;;;;;8.90;93903.00;;;;7386512;19;20212;-79
2024/01/22 12:58:16;;;;;;;0.40;0.40;;;;;9.00;93888.00;;;;7387697;19;20141;-78
2024/01/22 13:00:45;;;;;;;0.80;0.30;;;;;8.90;93875.00;;;;7393530;19;20149;-77